SIC0904 EHAM-BIKF
Flight info
| Callsign | SIC0904 |
|---|---|
| Flight time | 2h 48m |
| Altitude | 36000 |
| Route | BERGI M90 LONAM DCT ODMOS DCT UPNAL DCT NALAN/M082F380 DCT 62N010W DCT ALDAN DCT ASRUN |
| Aircraft | B77L/H-SDE2E3GHIJ4J5M1P2RWXYZ/LB1D1 |
Departure
| Time | 2026-05-05 07:11 |
|---|---|
| Airport | Amsterdam Airport Schiphol (EHAM) |
Arrival
| Time | 2026-05-05 09:59 |
|---|---|
| Airport | Keflavik International Airport (BIKF) |
| Time | Latitude | Longitude | Altitude | Speed | Heading |
|---|---|---|---|---|---|
| 2026-05-05 06:52 | 52.29557 | 4.76301 | 5 ft | 0 kts | 148° |
| 2026-05-05 07:05 | 52.29569 | 4.76289 | 5 ft | 4 kts | 143° |
| 2026-05-05 07:05 | 52.29589 | 4.76260 | 6 ft | 4 kts | 128° |
| 2026-05-05 07:06 | 52.29603 | 4.76223 | 6 ft | 4 kts | 108° |
| 2026-05-05 07:06 | 52.29607 | 4.76181 | 4 ft | 4 kts | 83° |
| 2026-05-05 07:06 | 52.29600 | 4.76144 | 5 ft | 1 kts | 58° |
| 2026-05-05 07:06 | 52.29600 | 4.76143 | 5 ft | 0 kts | 58° |
| 2026-05-05 07:08 | 52.29604 | 4.76152 | 3 ft | 4 kts | 58° |
| 2026-05-05 07:08 | 52.29634 | 4.76231 | 3 ft | 12 kts | 58° |
| 2026-05-05 07:09 | 52.29692 | 4.76383 | 3 ft | 19 kts | 59° |
| 2026-05-05 07:09 | 52.29776 | 4.76604 | 3 ft | 26 kts | 58° |
| 2026-05-05 07:09 | 52.29893 | 4.76856 | 4 ft | 29 kts | 42° |
| 2026-05-05 07:09 | 52.30013 | 4.77122 | 4 ft | 29 kts | 57° |
| 2026-05-05 07:10 | 52.30122 | 4.77400 | 3 ft | 29 kts | 56° |
| 2026-05-05 07:10 | 52.30280 | 4.77549 | 3 ft | 24 kts | 2° |
| 2026-05-05 07:10 | 52.30352 | 4.77478 | 2 ft | 11 kts | 257° |
| 2026-05-05 07:10 | 52.30213 | 4.77111 | 1 ft | 76 kts | 238° |
| 2026-05-05 07:11 | 52.29798 | 4.76030 | 0 ft | 146 kts | 237° |
| 2026-05-05 07:11 | 52.29162 | 4.74379 | 109 ft | 185 kts | 239° |
| 2026-05-05 07:11 | 52.28452 | 4.72582 | 682 ft | 192 kts | 239° |
| 2026-05-05 07:11 | 52.27723 | 4.70768 | 1466 ft | 191 kts | 239° |
| 2026-05-05 07:12 | 52.26962 | 4.68958 | 2068 ft | 199 kts | 227° |
| 2026-05-05 07:12 | 52.25889 | 4.67329 | 2376 ft | 224 kts | 221° |
| 2026-05-05 07:12 | 52.24685 | 4.65540 | 2752 ft | 244 kts | 225° |
| 2026-05-05 07:12 | 52.23676 | 4.63162 | 3002 ft | 264 kts | 253° |
| 2026-05-05 07:13 | 52.23160 | 4.60365 | 4150 ft | 247 kts | 257° |
| 2026-05-05 07:13 | 52.22793 | 4.57698 | 5125 ft | 245 kts | 270° |
| 2026-05-05 07:13 | 52.23239 | 4.54944 | 5507 ft | 261 kts | 306° |
| 2026-05-05 07:13 | 52.24627 | 4.53015 | 6244 ft | 264 kts | 333° |
| 2026-05-05 07:14 | 52.26250 | 4.51636 | 7049 ft | 266 kts | 329° |
| 2026-05-05 07:14 | 52.27835 | 4.50080 | 7875 ft | 268 kts | 327° |
| 2026-05-05 07:14 | 52.29452 | 4.48449 | 8626 ft | 276 kts | 328° |
| 2026-05-05 07:14 | 52.31100 | 4.46790 | 9441 ft | 280 kts | 328° |
| 2026-05-05 07:15 | 52.32753 | 4.45134 | 10363 ft | 279 kts | 327° |
| 2026-05-05 07:15 | 52.34470 | 4.43416 | 10746 ft | 302 kts | 327° |
| 2026-05-05 07:15 | 52.36423 | 4.41898 | 10866 ft | 325 kts | 346° |
| 2026-05-05 07:15 | 52.38737 | 4.41457 | 11086 ft | 347 kts | 354° |
| 2026-05-05 07:16 | 52.41202 | 4.41146 | 11669 ft | 362 kts | 354° |
| 2026-05-05 07:16 | 52.43740 | 4.40792 | 12529 ft | 370 kts | 353° |
| 2026-05-05 07:16 | 52.46320 | 4.40413 | 13549 ft | 375 kts | 352° |
| 2026-05-05 07:16 | 52.48936 | 4.40015 | 14429 ft | 381 kts | 353° |
| 2026-05-05 07:17 | 52.51557 | 4.39608 | 15296 ft | 386 kts | 352° |
| 2026-05-05 07:17 | 52.54246 | 4.39185 | 16131 ft | 391 kts | 352° |
| 2026-05-05 07:17 | 52.56979 | 4.38753 | 16974 ft | 397 kts | 352° |
| 2026-05-05 07:17 | 52.59749 | 4.38314 | 17801 ft | 403 kts | 352° |
| 2026-05-05 07:18 | 52.62562 | 4.37866 | 18576 ft | 409 kts | 352° |
| 2026-05-05 07:18 | 52.65411 | 4.37413 | 19296 ft | 414 kts | 352° |
| 2026-05-05 07:18 | 52.68298 | 4.36953 | 20022 ft | 419 kts | 352° |
| 2026-05-05 07:18 | 52.71207 | 4.36490 | 20788 ft | 422 kts | 352° |
| 2026-05-05 07:19 | 52.74146 | 4.36020 | 21516 ft | 427 kts | 351° |
| 2026-05-05 07:19 | 52.77097 | 4.35368 | 22185 ft | 430 kts | 346° |
| 2026-05-05 07:19 | 52.80039 | 4.34317 | 22863 ft | 434 kts | 343° |
| 2026-05-05 07:19 | 52.82991 | 4.33104 | 23548 ft | 439 kts | 343° |
| 2026-05-05 07:20 | 52.85969 | 4.31868 | 24154 ft | 443 kts | 343° |
| 2026-05-05 07:20 | 52.88976 | 4.30658 | 24764 ft | 447 kts | 343° |
| 2026-05-05 07:20 | 52.92018 | 4.29475 | 25387 ft | 450 kts | 344° |
| 2026-05-05 07:20 | 52.95076 | 4.28313 | 26069 ft | 451 kts | 344° |
| 2026-05-05 07:21 | 52.98146 | 4.27158 | 26733 ft | 453 kts | 344° |
| 2026-05-05 07:21 | 53.01235 | 4.25996 | 27276 ft | 458 kts | 344° |
| 2026-05-05 07:21 | 53.04353 | 4.24817 | 27779 ft | 462 kts | 344° |
| 2026-05-05 07:21 | 53.07507 | 4.23622 | 28303 ft | 466 kts | 344° |
| 2026-05-05 07:22 | 53.10685 | 4.22420 | 28854 ft | 470 kts | 344° |
| 2026-05-05 07:22 | 53.13887 | 4.21212 | 29385 ft | 473 kts | 344° |
| 2026-05-05 07:22 | 53.17107 | 4.19998 | 29876 ft | 477 kts | 344° |
| 2026-05-05 07:22 | 53.20348 | 4.18774 | 30345 ft | 479 kts | 345° |
| 2026-05-05 07:23 | 53.23595 | 4.17547 | 30877 ft | 478 kts | 345° |
| 2026-05-05 07:23 | 53.26833 | 4.16321 | 31433 ft | 476 kts | 345° |
| 2026-05-05 07:23 | 53.30061 | 4.15096 | 31969 ft | 476 kts | 345° |
| 2026-05-05 07:23 | 53.33290 | 4.13868 | 32459 ft | 475 kts | 345° |
| 2026-05-05 07:24 | 53.36515 | 4.12639 | 32963 ft | 475 kts | 345° |
| 2026-05-05 07:24 | 53.39739 | 4.11408 | 33424 ft | 475 kts | 345° |
| 2026-05-05 07:24 | 53.42961 | 4.10175 | 33888 ft | 475 kts | 346° |
| 2026-05-05 07:24 | 53.46176 | 4.08944 | 34301 ft | 474 kts | 345° |
| 2026-05-05 07:25 | 53.49355 | 4.07725 | 34644 ft | 475 kts | 345° |
| 2026-05-05 07:25 | 53.51535 | 4.06888 | 34872 ft | 476 kts | 345° |
| 2026-05-05 07:25 | 53.55853 | 4.05226 | 35331 ft | 476 kts | 345° |
| 2026-05-05 07:25 | 53.59044 | 4.03995 | 35680 ft | 476 kts | 345° |
| 2026-05-05 07:26 | 53.62277 | 4.02746 | 35942 ft | 479 kts | 345° |
| 2026-05-05 07:26 | 53.68816 | 4.00212 | 36021 ft | 481 kts | 345° |
| 2026-05-05 07:27 | 53.74249 | 3.98103 | 35991 ft | 474 kts | 345° |
| 2026-05-05 07:27 | 53.80653 | 3.95588 | 36015 ft | 472 kts | 343° |
| 2026-05-05 07:28 | 53.86748 | 3.91783 | 36009 ft | 469 kts | 332° |
| 2026-05-05 07:28 | 53.93402 | 3.85484 | 36027 ft | 469 kts | 328° |
| 2026-05-05 07:29 | 53.98107 | 3.80889 | 36018 ft | 470 kts | 328° |
| 2026-05-05 07:29 | 54.03786 | 3.75380 | 36011 ft | 470 kts | 328° |
| 2026-05-05 07:30 | 54.09483 | 3.69884 | 36014 ft | 471 kts | 328° |
| 2026-05-05 07:30 | 54.18034 | 3.61621 | 36013 ft | 471 kts | 328° |
| 2026-05-05 07:31 | 54.23720 | 3.56104 | 36001 ft | 470 kts | 328° |
| 2026-05-05 07:31 | 54.29402 | 3.50570 | 36008 ft | 469 kts | 328° |
| 2026-05-05 07:32 | 54.35062 | 3.45039 | 36010 ft | 468 kts | 328° |
| 2026-05-05 07:32 | 54.40711 | 3.39501 | 36004 ft | 467 kts | 328° |
| 2026-05-05 07:33 | 54.46352 | 3.33954 | 36036 ft | 467 kts | 328° |
| 2026-05-05 07:33 | 54.51976 | 3.28407 | 36007 ft | 466 kts | 327° |
| 2026-05-05 07:34 | 54.57591 | 3.22850 | 36006 ft | 465 kts | 327° |
| 2026-05-05 07:34 | 54.63191 | 3.17289 | 36007 ft | 464 kts | 327° |
| 2026-05-05 07:35 | 54.68786 | 3.11714 | 36005 ft | 464 kts | 327° |
| 2026-05-05 07:35 | 54.74329 | 3.06177 | 36016 ft | 463 kts | 327° |
| 2026-05-05 07:36 | 54.79948 | 3.00707 | 36009 ft | 463 kts | 328° |
| 2026-05-05 07:36 | 54.85627 | 2.95418 | 35999 ft | 463 kts | 329° |
| 2026-05-05 07:37 | 54.91296 | 2.90121 | 36002 ft | 462 kts | 328° |
| 2026-05-05 07:37 | 54.96943 | 2.84790 | 35999 ft | 462 kts | 328° |
| 2026-05-05 07:38 | 55.02583 | 2.79431 | 35997 ft | 462 kts | 328° |
| 2026-05-05 07:38 | 55.08213 | 2.74065 | 35993 ft | 461 kts | 328° |
| 2026-05-05 07:39 | 55.13843 | 2.68682 | 35992 ft | 461 kts | 328° |
| 2026-05-05 07:39 | 55.19457 | 2.63298 | 35991 ft | 460 kts | 328° |
| 2026-05-05 07:40 | 55.25070 | 2.57898 | 36008 ft | 460 kts | 327° |
| 2026-05-05 07:40 | 55.30674 | 2.52488 | 35992 ft | 459 kts | 327° |
| 2026-05-05 07:41 | 55.36272 | 2.47067 | 35982 ft | 459 kts | 327° |
| 2026-05-05 07:41 | 55.41818 | 2.41654 | 35986 ft | 458 kts | 326° |
| 2026-05-05 07:42 | 55.47074 | 2.35431 | 35986 ft | 455 kts | 321° |
| 2026-05-05 07:42 | 55.52224 | 2.28981 | 35996 ft | 455 kts | 321° |
| 2026-05-05 07:43 | 55.57372 | 2.22528 | 35995 ft | 455 kts | 321° |
| 2026-05-05 07:43 | 55.62538 | 2.16075 | 35975 ft | 455 kts | 321° |
| 2026-05-05 07:44 | 55.67710 | 2.09611 | 35972 ft | 455 kts | 321° |
| 2026-05-05 07:44 | 55.72878 | 2.03136 | 35974 ft | 455 kts | 321° |
| 2026-05-05 07:45 | 55.78035 | 1.96651 | 36000 ft | 455 kts | 321° |
| 2026-05-05 07:45 | 55.83189 | 1.90149 | 35979 ft | 455 kts | 321° |
| 2026-05-05 07:46 | 55.88339 | 1.83629 | 35976 ft | 454 kts | 321° |
| 2026-05-05 07:46 | 55.93476 | 1.77103 | 35975 ft | 453 kts | 321° |
| 2026-05-05 07:47 | 55.98609 | 1.70562 | 35974 ft | 453 kts | 321° |
| 2026-05-05 07:47 | 56.03731 | 1.64012 | 35977 ft | 452 kts | 321° |
| 2026-05-05 07:48 | 56.08832 | 1.57467 | 35974 ft | 452 kts | 321° |
| 2026-05-05 07:48 | 56.13938 | 1.50895 | 35974 ft | 452 kts | 321° |
| 2026-05-05 07:49 | 56.19045 | 1.44298 | 35971 ft | 452 kts | 320° |
| 2026-05-05 07:49 | 56.24146 | 1.37688 | 35972 ft | 452 kts | 320° |
| 2026-05-05 07:50 | 56.29215 | 1.31097 | 35974 ft | 452 kts | 320° |
| 2026-05-05 07:50 | 56.34310 | 1.24448 | 35977 ft | 452 kts | 320° |
| 2026-05-05 07:51 | 56.39405 | 1.17780 | 35975 ft | 452 kts | 320° |
| 2026-05-05 07:51 | 56.44492 | 1.11098 | 35976 ft | 452 kts | 320° |
| 2026-05-05 07:52 | 56.49574 | 1.04401 | 35975 ft | 452 kts | 320° |
| 2026-05-05 07:52 | 56.54647 | 0.97693 | 35975 ft | 452 kts | 320° |
| 2026-05-05 07:53 | 56.59720 | 0.90961 | 35989 ft | 452 kts | 320° |
| 2026-05-05 07:53 | 56.64788 | 0.84214 | 35983 ft | 451 kts | 320° |
| 2026-05-05 07:54 | 56.69845 | 0.77458 | 35979 ft | 451 kts | 320° |
| 2026-05-05 07:54 | 56.74884 | 0.70704 | 35986 ft | 450 kts | 320° |
| 2026-05-05 07:55 | 56.79887 | 0.63974 | 35986 ft | 450 kts | 320° |
| 2026-05-05 07:55 | 56.84918 | 0.57183 | 36007 ft | 449 kts | 320° |
| 2026-05-05 07:56 | 56.89929 | 0.50397 | 35994 ft | 449 kts | 320° |
| 2026-05-05 07:56 | 56.94950 | 0.43574 | 35999 ft | 449 kts | 320° |
| 2026-05-05 07:57 | 56.99960 | 0.36742 | 35996 ft | 449 kts | 320° |
| 2026-05-05 07:57 | 57.04968 | 0.29890 | 35994 ft | 449 kts | 319° |
| 2026-05-05 07:58 | 57.09970 | 0.23022 | 35998 ft | 449 kts | 319° |
| 2026-05-05 07:58 | 57.14971 | 0.16132 | 36005 ft | 449 kts | 319° |
| 2026-05-05 07:59 | 57.19964 | 0.09229 | 36004 ft | 448 kts | 319° |
| 2026-05-05 07:59 | 57.24945 | 0.02321 | 36005 ft | 447 kts | 319° |
| 2026-05-05 08:00 | 57.29904 | -0.04584 | 36012 ft | 446 kts | 319° |
| 2026-05-05 08:00 | 57.34859 | -0.11506 | 36016 ft | 445 kts | 319° |
| 2026-05-05 08:01 | 57.39765 | -0.18384 | 36041 ft | 445 kts | 319° |
| 2026-05-05 08:01 | 57.44702 | -0.25328 | 36021 ft | 445 kts | 319° |
| 2026-05-05 08:02 | 57.49647 | -0.32307 | 36024 ft | 444 kts | 319° |
| 2026-05-05 08:02 | 57.54531 | -0.39225 | 36029 ft | 444 kts | 319° |
| 2026-05-05 08:03 | 57.59448 | -0.46215 | 36025 ft | 444 kts | 319° |
| 2026-05-05 08:03 | 57.64357 | -0.53217 | 36034 ft | 444 kts | 319° |
| 2026-05-05 08:04 | 57.69260 | -0.60236 | 36050 ft | 444 kts | 318° |
| 2026-05-05 08:04 | 57.74167 | -0.67283 | 36051 ft | 444 kts | 318° |
| 2026-05-05 08:05 | 57.79032 | -0.74295 | 36049 ft | 443 kts | 318° |
| 2026-05-05 08:05 | 57.83911 | -0.81350 | 36051 ft | 442 kts | 318° |
| 2026-05-05 08:06 | 57.88774 | -0.88410 | 36049 ft | 442 kts | 318° |
| 2026-05-05 08:06 | 57.93632 | -0.95486 | 36083 ft | 442 kts | 318° |
| 2026-05-05 08:07 | 57.98255 | -1.02244 | 36066 ft | 441 kts | 318° |
| 2026-05-05 08:07 | 58.03063 | -1.09296 | 36060 ft | 441 kts | 318° |
| 2026-05-05 08:08 | 58.07900 | -1.16414 | 36065 ft | 440 kts | 317° |
| 2026-05-05 08:08 | 58.12722 | -1.23537 | 36056 ft | 440 kts | 318° |
| 2026-05-05 08:09 | 58.17546 | -1.30688 | 36064 ft | 440 kts | 318° |
| 2026-05-05 08:09 | 58.22361 | -1.37851 | 36069 ft | 441 kts | 317° |
| 2026-05-05 08:10 | 58.27174 | -1.45035 | 36078 ft | 440 kts | 317° |
| 2026-05-05 08:10 | 58.31973 | -1.52224 | 36072 ft | 439 kts | 317° |
| 2026-05-05 08:11 | 58.36761 | -1.59421 | 36075 ft | 438 kts | 317° |
| 2026-05-05 08:11 | 58.41535 | -1.66625 | 36074 ft | 438 kts | 317° |
| 2026-05-05 08:12 | 58.46305 | -1.73848 | 36076 ft | 437 kts | 317° |
| 2026-05-05 08:12 | 58.51068 | -1.81085 | 36084 ft | 438 kts | 317° |
| 2026-05-05 08:13 | 58.55827 | -1.88343 | 36083 ft | 437 kts | 317° |
| 2026-05-05 08:13 | 58.60553 | -1.95576 | 36085 ft | 437 kts | 317° |
| 2026-05-05 08:14 | 58.65318 | -2.02895 | 36086 ft | 437 kts | 317° |
| 2026-05-05 08:14 | 58.70028 | -2.10156 | 36088 ft | 437 kts | 317° |
| 2026-05-05 08:15 | 58.74766 | -2.17485 | 36086 ft | 437 kts | 317° |
| 2026-05-05 08:15 | 58.79500 | -2.24835 | 36087 ft | 437 kts | 317° |
| 2026-05-05 08:16 | 58.83463 | -2.31009 | 36090 ft | 437 kts | 317° |
| 2026-05-05 08:16 | 58.88190 | -2.38397 | 36096 ft | 437 kts | 317° |
| 2026-05-05 08:17 | 58.92884 | -2.45760 | 36085 ft | 437 kts | 317° |
| 2026-05-05 08:17 | 58.97606 | -2.53194 | 36090 ft | 437 kts | 316° |
| 2026-05-05 08:18 | 59.02324 | -2.60648 | 36111 ft | 437 kts | 317° |
| 2026-05-05 08:18 | 59.07033 | -2.68116 | 36097 ft | 437 kts | 316° |
| 2026-05-05 08:19 | 59.11733 | -2.75596 | 36090 ft | 436 kts | 316° |
| 2026-05-05 08:19 | 59.16420 | -2.83082 | 36101 ft | 435 kts | 316° |
| 2026-05-05 08:20 | 59.21099 | -2.90584 | 36100 ft | 435 kts | 316° |
| 2026-05-05 08:20 | 59.25766 | -2.98095 | 36095 ft | 435 kts | 316° |
| 2026-05-05 08:21 | 59.30430 | -3.05629 | 36117 ft | 435 kts | 316° |
| 2026-05-05 08:21 | 59.35093 | -3.13188 | 36105 ft | 435 kts | 316° |
| 2026-05-05 08:22 | 59.39751 | -3.20765 | 36097 ft | 434 kts | 316° |
| 2026-05-05 08:22 | 59.44396 | -3.28351 | 36086 ft | 434 kts | 316° |
| 2026-05-05 08:23 | 59.49006 | -3.35908 | 36096 ft | 434 kts | 316° |
| 2026-05-05 08:23 | 59.53449 | -3.43218 | 36100 ft | 434 kts | 316° |
| 2026-05-05 08:24 | 59.58058 | -3.50827 | 36119 ft | 435 kts | 316° |
| 2026-05-05 08:24 | 59.62691 | -3.58504 | 36100 ft | 435 kts | 316° |
| 2026-05-05 08:25 | 59.67316 | -3.66197 | 36109 ft | 434 kts | 316° |
| 2026-05-05 08:25 | 59.71935 | -3.73908 | 36108 ft | 433 kts | 316° |
| 2026-05-05 08:26 | 59.76539 | -3.81623 | 36095 ft | 433 kts | 316° |
| 2026-05-05 08:26 | 59.81133 | -3.89350 | 36089 ft | 433 kts | 316° |
| 2026-05-05 08:27 | 59.85724 | -3.97103 | 36095 ft | 433 kts | 316° |
| 2026-05-05 08:27 | 59.90305 | -4.04867 | 36099 ft | 432 kts | 316° |
| 2026-05-05 08:28 | 59.94877 | -4.12644 | 36101 ft | 432 kts | 316° |
| 2026-05-05 08:28 | 59.99445 | -4.20443 | 36098 ft | 432 kts | 315° |
| 2026-05-05 08:29 | 60.04007 | -4.28262 | 36107 ft | 432 kts | 315° |
| 2026-05-05 08:30 | 60.10845 | -4.40038 | 36155 ft | 432 kts | 315° |
| 2026-05-05 08:30 | 60.15399 | -4.47919 | 36111 ft | 432 kts | 315° |
| 2026-05-05 08:31 | 60.19945 | -4.55814 | 36107 ft | 431 kts | 315° |
| 2026-05-05 08:31 | 60.24446 | -4.63660 | 36108 ft | 430 kts | 315° |
| 2026-05-05 08:32 | 60.28957 | -4.71554 | 36091 ft | 429 kts | 315° |
| 2026-05-05 08:32 | 60.33463 | -4.79472 | 36103 ft | 429 kts | 315° |
| 2026-05-05 08:33 | 60.37961 | -4.87403 | 36147 ft | 429 kts | 315° |
| 2026-05-05 08:33 | 60.42458 | -4.95365 | 36117 ft | 429 kts | 315° |
| 2026-05-05 08:34 | 60.46949 | -5.03344 | 36111 ft | 429 kts | 315° |
| 2026-05-05 08:34 | 60.51434 | -5.11344 | 36111 ft | 429 kts | 315° |
| 2026-05-05 08:35 | 60.55904 | -5.19348 | 36117 ft | 429 kts | 315° |
| 2026-05-05 08:35 | 60.60375 | -5.27385 | 36117 ft | 429 kts | 315° |
| 2026-05-05 08:36 | 60.64845 | -5.35452 | 36163 ft | 429 kts | 315° |
| 2026-05-05 08:36 | 60.69314 | -5.43546 | 36121 ft | 430 kts | 315° |
| 2026-05-05 08:37 | 60.73776 | -5.51660 | 36110 ft | 429 kts | 315° |
| 2026-05-05 08:37 | 60.78224 | -5.59781 | 36114 ft | 429 kts | 315° |
| 2026-05-05 08:38 | 60.82668 | -5.67926 | 36110 ft | 428 kts | 315° |
| 2026-05-05 08:38 | 60.87104 | -5.76088 | 36127 ft | 428 kts | 315° |
| 2026-05-05 08:39 | 60.91530 | -5.84262 | 36132 ft | 428 kts | 315° |
| 2026-05-05 08:39 | 60.95967 | -5.92486 | 36136 ft | 429 kts | 315° |
| 2026-05-05 08:40 | 60.99966 | -6.01508 | 36127 ft | 426 kts | 306° |
| 2026-05-05 08:40 | 61.03238 | -6.11655 | 36134 ft | 424 kts | 299° |
| 2026-05-05 08:41 | 61.06101 | -6.22269 | 36134 ft | 424 kts | 298° |
| 2026-05-05 08:41 | 61.08663 | -6.31888 | 36399 ft | 428 kts | 298° |
| 2026-05-05 08:41 | 61.10101 | -6.37283 | 36745 ft | 428 kts | 298° |
| 2026-05-05 08:42 | 61.11523 | -6.42610 | 37074 ft | 429 kts | 298° |
| 2026-05-05 08:42 | 61.12987 | -6.48091 | 37352 ft | 431 kts | 298° |
| 2026-05-05 08:42 | 61.14419 | -6.53457 | 37584 ft | 432 kts | 298° |
| 2026-05-05 08:42 | 61.15872 | -6.58909 | 37865 ft | 433 kts | 298° |
| 2026-05-05 08:43 | 61.17327 | -6.64382 | 38087 ft | 435 kts | 298° |
| 2026-05-05 08:43 | 61.20256 | -6.75439 | 38134 ft | 437 kts | 298° |
| 2026-05-05 08:44 | 61.23158 | -6.86448 | 38127 ft | 433 kts | 298° |
| 2026-05-05 08:44 | 61.26032 | -6.97407 | 38132 ft | 431 kts | 298° |
| 2026-05-05 08:45 | 61.28885 | -7.08336 | 38131 ft | 430 kts | 298° |
| 2026-05-05 08:45 | 61.31724 | -7.19270 | 38145 ft | 430 kts | 297° |
| 2026-05-05 08:46 | 61.34559 | -7.30242 | 38150 ft | 431 kts | 297° |
| 2026-05-05 08:46 | 61.37396 | -7.41273 | 38145 ft | 432 kts | 297° |
| 2026-05-05 08:47 | 61.40228 | -7.52343 | 38141 ft | 433 kts | 297° |
| 2026-05-05 08:47 | 61.43058 | -7.63459 | 38152 ft | 434 kts | 297° |
| 2026-05-05 08:48 | 61.45879 | -7.74596 | 38156 ft | 435 kts | 297° |
| 2026-05-05 08:48 | 61.48704 | -7.85802 | 38153 ft | 436 kts | 297° |
| 2026-05-05 08:49 | 61.51522 | -7.97039 | 38153 ft | 436 kts | 297° |
| 2026-05-05 08:49 | 61.54328 | -8.08289 | 38153 ft | 436 kts | 297° |
| 2026-05-05 08:50 | 61.57128 | -8.19568 | 38152 ft | 436 kts | 297° |
| 2026-05-05 08:50 | 61.59899 | -8.30790 | 38164 ft | 435 kts | 297° |
| 2026-05-05 08:51 | 61.62673 | -8.42080 | 38160 ft | 435 kts | 297° |
| 2026-05-05 08:51 | 61.65436 | -8.53385 | 38157 ft | 434 kts | 296° |
| 2026-05-05 08:52 | 61.68188 | -8.64702 | 38165 ft | 434 kts | 296° |
| 2026-05-05 08:52 | 61.70931 | -8.76042 | 38163 ft | 434 kts | 296° |
| 2026-05-05 08:53 | 61.73662 | -8.87388 | 38169 ft | 434 kts | 296° |
| 2026-05-05 08:53 | 61.76385 | -8.98762 | 38167 ft | 434 kts | 296° |
| 2026-05-05 08:54 | 61.79099 | -9.10160 | 38174 ft | 434 kts | 296° |
| 2026-05-05 08:54 | 61.81802 | -9.21569 | 38177 ft | 434 kts | 296° |
| 2026-05-05 08:55 | 61.84498 | -9.33009 | 38151 ft | 434 kts | 296° |
| 2026-05-05 08:55 | 61.87184 | -9.44467 | 38172 ft | 434 kts | 296° |
| 2026-05-05 08:56 | 61.89859 | -9.55939 | 38217 ft | 434 kts | 296° |
| 2026-05-05 08:56 | 61.92529 | -9.67454 | 38193 ft | 435 kts | 296° |
| 2026-05-05 08:57 | 61.95193 | -9.79001 | 38181 ft | 435 kts | 296° |
| 2026-05-05 08:57 | 61.97831 | -9.90490 | 38178 ft | 435 kts | 296° |
| 2026-05-05 08:58 | 62.00344 | -10.02205 | 38187 ft | 435 kts | 290° |
| 2026-05-05 08:58 | 62.02179 | -10.14503 | 38168 ft | 435 kts | 287° |
| 2026-05-05 08:59 | 62.03949 | -10.26834 | 38186 ft | 435 kts | 287° |
| 2026-05-05 08:59 | 62.05718 | -10.39154 | 38195 ft | 435 kts | 288° |
| 2026-05-05 09:00 | 62.07466 | -10.51332 | 38198 ft | 435 kts | 287° |
| 2026-05-05 09:00 | 62.09232 | -10.63695 | 38201 ft | 435 kts | 287° |
| 2026-05-05 09:01 | 62.10986 | -10.76069 | 38245 ft | 435 kts | 287° |
| 2026-05-05 09:01 | 62.12732 | -10.88475 | 38209 ft | 436 kts | 287° |
| 2026-05-05 09:02 | 62.14462 | -11.00864 | 38194 ft | 436 kts | 287° |
| 2026-05-05 09:02 | 62.15893 | -11.11184 | 38207 ft | 435 kts | 287° |
| 2026-05-05 09:03 | 62.17604 | -11.23604 | 38212 ft | 435 kts | 287° |
| 2026-05-05 09:03 | 62.19578 | -11.38059 | 38213 ft | 435 kts | 287° |
| 2026-05-05 09:04 | 62.20990 | -11.48478 | 38213 ft | 435 kts | 287° |
| 2026-05-05 09:04 | 62.22666 | -11.60933 | 38212 ft | 435 kts | 287° |
| 2026-05-05 09:05 | 62.24599 | -11.75419 | 38206 ft | 434 kts | 287° |
| 2026-05-05 09:05 | 62.25974 | -11.85799 | 38210 ft | 435 kts | 286° |
| 2026-05-05 09:06 | 62.27617 | -11.98300 | 38218 ft | 435 kts | 286° |
| 2026-05-05 09:06 | 62.29250 | -12.10818 | 38221 ft | 436 kts | 286° |
| 2026-05-05 09:07 | 62.30878 | -12.23403 | 38230 ft | 437 kts | 286° |
| 2026-05-05 09:07 | 62.32496 | -12.36013 | 38226 ft | 438 kts | 286° |
| 2026-05-05 09:08 | 62.34104 | -12.48652 | 38226 ft | 438 kts | 286° |
| 2026-05-05 09:08 | 62.35704 | -12.61321 | 38218 ft | 438 kts | 286° |
| 2026-05-05 09:09 | 62.37287 | -12.73972 | 38227 ft | 437 kts | 285° |
| 2026-05-05 09:09 | 62.38859 | -12.86636 | 38225 ft | 437 kts | 285° |
| 2026-05-05 09:10 | 62.40420 | -12.99308 | 38234 ft | 437 kts | 285° |
| 2026-05-05 09:10 | 62.41967 | -13.11981 | 38234 ft | 437 kts | 285° |
| 2026-05-05 09:11 | 62.43502 | -13.24666 | 38234 ft | 437 kts | 285° |
| 2026-05-05 09:11 | 62.45024 | -13.37342 | 38230 ft | 436 kts | 285° |
| 2026-05-05 09:12 | 62.46533 | -13.50030 | 38236 ft | 436 kts | 285° |
| 2026-05-05 09:12 | 62.48033 | -13.62747 | 38243 ft | 437 kts | 285° |
| 2026-05-05 09:13 | 62.49524 | -13.75497 | 38240 ft | 438 kts | 285° |
| 2026-05-05 09:13 | 62.51008 | -13.88302 | 38238 ft | 439 kts | 285° |
| 2026-05-05 09:14 | 62.52470 | -14.01031 | 38237 ft | 439 kts | 285° |
| 2026-05-05 09:14 | 62.53931 | -14.13863 | 38209 ft | 439 kts | 284° |
| 2026-05-05 09:15 | 62.55382 | -14.26721 | 38230 ft | 439 kts | 284° |
| 2026-05-05 09:15 | 62.56822 | -14.39597 | 38227 ft | 439 kts | 284° |
| 2026-05-05 09:16 | 62.58250 | -14.52490 | 38245 ft | 440 kts | 284° |
| 2026-05-05 09:16 | 62.59667 | -14.65405 | 38238 ft | 440 kts | 284° |
| 2026-05-05 09:17 | 62.61073 | -14.78338 | 38227 ft | 440 kts | 284° |
| 2026-05-05 09:17 | 62.62467 | -14.91283 | 38226 ft | 440 kts | 284° |
| 2026-05-05 09:18 | 62.63849 | -15.04245 | 38229 ft | 440 kts | 284° |
| 2026-05-05 09:18 | 62.65220 | -15.17220 | 38228 ft | 441 kts | 284° |
| 2026-05-05 09:19 | 62.66581 | -15.30220 | 38233 ft | 441 kts | 284° |
| 2026-05-05 09:19 | 62.67923 | -15.43181 | 38229 ft | 441 kts | 284° |
| 2026-05-05 09:20 | 62.69262 | -15.56230 | 38229 ft | 442 kts | 284° |
| 2026-05-05 09:20 | 62.70590 | -15.69303 | 38229 ft | 442 kts | 284° |
| 2026-05-05 09:21 | 62.71905 | -15.82383 | 38232 ft | 442 kts | 283° |
| 2026-05-05 09:21 | 62.73207 | -15.95473 | 38231 ft | 442 kts | 283° |
| 2026-05-05 09:22 | 62.74497 | -16.08562 | 38236 ft | 442 kts | 283° |
| 2026-05-05 09:22 | 62.75777 | -16.21690 | 38231 ft | 442 kts | 283° |
| 2026-05-05 09:23 | 62.77042 | -16.34810 | 38231 ft | 442 kts | 283° |
| 2026-05-05 09:23 | 62.78296 | -16.47946 | 38254 ft | 442 kts | 283° |
| 2026-05-05 09:24 | 62.79539 | -16.61103 | 38212 ft | 442 kts | 283° |
| 2026-05-05 09:24 | 62.80769 | -16.74261 | 38226 ft | 442 kts | 283° |
| 2026-05-05 09:25 | 62.81986 | -16.87437 | 38233 ft | 442 kts | 283° |
| 2026-05-05 09:25 | 62.83192 | -17.00631 | 38237 ft | 442 kts | 283° |
| 2026-05-05 09:26 | 62.84387 | -17.13848 | 38237 ft | 442 kts | 283° |
| 2026-05-05 09:26 | 62.85569 | -17.27064 | 38240 ft | 443 kts | 283° |
| 2026-05-05 09:27 | 62.86739 | -17.40302 | 38241 ft | 443 kts | 283° |
| 2026-05-05 09:27 | 62.87895 | -17.53540 | 38230 ft | 442 kts | 283° |
| 2026-05-05 09:28 | 62.89031 | -17.66686 | 38249 ft | 442 kts | 283° |
| 2026-05-05 09:28 | 62.90169 | -17.80014 | 38249 ft | 442 kts | 282° |
| 2026-05-05 09:29 | 62.91280 | -17.93179 | 38288 ft | 442 kts | 283° |
| 2026-05-05 09:29 | 62.92386 | -18.06449 | 38270 ft | 442 kts | 282° |
| 2026-05-05 09:30 | 62.93479 | -18.19719 | 38250 ft | 441 kts | 282° |
| 2026-05-05 09:30 | 62.94557 | -18.32971 | 38258 ft | 440 kts | 282° |
| 2026-05-05 09:31 | 62.95621 | -18.46198 | 38253 ft | 439 kts | 282° |
| 2026-05-05 09:31 | 62.96672 | -18.59402 | 38259 ft | 438 kts | 282° |
| 2026-05-05 09:32 | 62.98062 | -18.72373 | 38262 ft | 435 kts | 292° |
| 2026-05-05 09:32 | 63.00615 | -18.84386 | 38265 ft | 433 kts | 301° |
| 2026-05-05 09:33 | 63.04063 | -18.95265 | 38265 ft | 433 kts | 306° |
| 2026-05-05 09:33 | 63.05857 | -19.00645 | 37690 ft | 442 kts | 306° |
| 2026-05-05 09:33 | 63.07668 | -19.06080 | 37240 ft | 437 kts | 306° |
| 2026-05-05 09:33 | 63.09449 | -19.11465 | 36715 ft | 431 kts | 305° |
| 2026-05-05 09:34 | 63.11198 | -19.16798 | 36223 ft | 426 kts | 305° |
| 2026-05-05 09:34 | 63.12919 | -19.22081 | 35696 ft | 421 kts | 304° |
| 2026-05-05 09:34 | 63.14613 | -19.27307 | 35197 ft | 416 kts | 304° |
| 2026-05-05 09:34 | 63.16283 | -19.32480 | 34717 ft | 411 kts | 304° |
| 2026-05-05 09:35 | 63.17931 | -19.37601 | 34211 ft | 407 kts | 304° |
| 2026-05-05 09:35 | 63.21155 | -19.47651 | 33108 ft | 397 kts | 304° |
| 2026-05-05 09:35 | 63.22742 | -19.52612 | 32619 ft | 392 kts | 304° |
| 2026-05-05 09:36 | 63.24305 | -19.57510 | 32121 ft | 386 kts | 303° |
| 2026-05-05 09:36 | 63.25846 | -19.62350 | 31625 ft | 381 kts | 303° |
| 2026-05-05 09:36 | 63.27366 | -19.67131 | 31136 ft | 376 kts | 303° |
| 2026-05-05 09:36 | 63.28866 | -19.71862 | 30638 ft | 372 kts | 303° |
| 2026-05-05 09:37 | 63.30343 | -19.76528 | 30114 ft | 367 kts | 303° |
| 2026-05-05 09:37 | 63.31799 | -19.81140 | 29552 ft | 362 kts | 303° |
| 2026-05-05 09:37 | 63.33232 | -19.85683 | 29035 ft | 356 kts | 303° |
| 2026-05-05 09:37 | 63.34642 | -19.90166 | 28536 ft | 351 kts | 303° |
| 2026-05-05 09:38 | 63.36029 | -19.94583 | 28030 ft | 346 kts | 303° |
| 2026-05-05 09:38 | 63.37396 | -19.98945 | 27537 ft | 341 kts | 303° |
| 2026-05-05 09:38 | 63.38746 | -20.03264 | 27034 ft | 337 kts | 303° |
| 2026-05-05 09:38 | 63.40077 | -20.07529 | 26559 ft | 333 kts | 302° |
| 2026-05-05 09:39 | 63.41392 | -20.11751 | 26087 ft | 329 kts | 302° |
| 2026-05-05 09:39 | 63.42692 | -20.15929 | 25633 ft | 326 kts | 302° |
| 2026-05-05 09:39 | 63.43974 | -20.20061 | 25169 ft | 322 kts | 302° |
| 2026-05-05 09:39 | 63.45243 | -20.24157 | 24734 ft | 319 kts | 302° |
| 2026-05-05 09:40 | 63.46483 | -20.28166 | 24293 ft | 316 kts | 302° |
| 2026-05-05 09:40 | 63.47725 | -20.32190 | 23869 ft | 313 kts | 302° |
| 2026-05-05 09:40 | 63.48954 | -20.36180 | 23338 ft | 310 kts | 302° |
| 2026-05-05 09:40 | 63.50170 | -20.40132 | 22913 ft | 306 kts | 302° |
| 2026-05-05 09:41 | 63.51366 | -20.44024 | 22485 ft | 302 kts | 302° |
| 2026-05-05 09:41 | 63.52551 | -20.47884 | 22083 ft | 299 kts | 302° |
| 2026-05-05 09:41 | 63.53724 | -20.51718 | 21640 ft | 296 kts | 302° |
| 2026-05-05 09:41 | 63.54882 | -20.55508 | 21234 ft | 294 kts | 302° |
| 2026-05-05 09:42 | 63.55872 | -20.59472 | 20811 ft | 290 kts | 291° |
| 2026-05-05 09:42 | 63.56456 | -20.63777 | 20461 ft | 287 kts | 287° |
| 2026-05-05 09:42 | 63.56974 | -20.68088 | 20043 ft | 286 kts | 287° |
| 2026-05-05 09:42 | 63.57490 | -20.72379 | 19639 ft | 284 kts | 287° |
| 2026-05-05 09:43 | 63.58006 | -20.76651 | 19237 ft | 283 kts | 287° |
| 2026-05-05 09:43 | 63.58525 | -20.80917 | 18832 ft | 282 kts | 287° |
| 2026-05-05 09:43 | 63.59041 | -20.85154 | 18407 ft | 281 kts | 287° |
| 2026-05-05 09:43 | 63.59551 | -20.89339 | 17974 ft | 281 kts | 287° |
| 2026-05-05 09:44 | 63.60065 | -20.93555 | 17579 ft | 279 kts | 287° |
| 2026-05-05 09:44 | 63.60570 | -20.97706 | 17249 ft | 273 kts | 287° |
| 2026-05-05 09:44 | 63.61067 | -21.01789 | 16833 ft | 270 kts | 287° |
| 2026-05-05 09:44 | 63.61569 | -21.05916 | 16344 ft | 270 kts | 287° |
| 2026-05-05 09:45 | 63.62055 | -21.09940 | 15881 ft | 271 kts | 287° |
| 2026-05-05 09:45 | 63.62550 | -21.14044 | 15697 ft | 274 kts | 287° |
| 2026-05-05 09:45 | 63.63046 | -21.18176 | 15666 ft | 272 kts | 287° |
| 2026-05-05 09:45 | 63.63526 | -21.22220 | 15508 ft | 262 kts | 286° |
| 2026-05-05 09:46 | 63.63991 | -21.26149 | 14869 ft | 258 kts | 286° |
| 2026-05-05 09:46 | 63.64454 | -21.30063 | 13895 ft | 260 kts | 286° |
| 2026-05-05 09:46 | 63.64924 | -21.34049 | 12901 ft | 269 kts | 285° |
| 2026-05-05 09:46 | 63.65398 | -21.38071 | 12614 ft | 266 kts | 285° |
| 2026-05-05 09:47 | 63.65873 | -21.42103 | 12270 ft | 267 kts | 285° |
| 2026-05-05 09:47 | 63.66347 | -21.46140 | 11919 ft | 268 kts | 285° |
| 2026-05-05 09:47 | 63.66821 | -21.50207 | 11585 ft | 269 kts | 285° |
| 2026-05-05 09:47 | 63.67296 | -21.54296 | 11237 ft | 270 kts | 285° |
| 2026-05-05 09:48 | 63.67773 | -21.58406 | 10887 ft | 272 kts | 285° |
| 2026-05-05 09:48 | 63.68251 | -21.62541 | 10627 ft | 271 kts | 285° |
| 2026-05-05 09:48 | 63.68719 | -21.66599 | 10512 ft | 265 kts | 285° |
| 2026-05-05 09:48 | 63.69176 | -21.70575 | 10382 ft | 259 kts | 285° |
| 2026-05-05 09:49 | 63.69624 | -21.74477 | 10188 ft | 257 kts | 285° |
| 2026-05-05 09:49 | 63.70072 | -21.78389 | 9860 ft | 258 kts | 285° |
| 2026-05-05 09:49 | 63.70519 | -21.82309 | 9582 ft | 258 kts | 285° |
| 2026-05-05 09:49 | 63.70966 | -21.86237 | 9287 ft | 258 kts | 285° |
| 2026-05-05 09:50 | 63.71413 | -21.90165 | 8997 ft | 259 kts | 285° |
| 2026-05-05 09:50 | 63.71859 | -21.94103 | 8710 ft | 259 kts | 285° |
| 2026-05-05 09:50 | 63.72306 | -21.98046 | 8411 ft | 258 kts | 285° |
| 2026-05-05 09:50 | 63.72735 | -22.01854 | 8000 ft | 245 kts | 285° |
| 2026-05-05 09:51 | 63.73151 | -22.05569 | 7529 ft | 244 kts | 286° |
| 2026-05-05 09:51 | 63.73565 | -22.09267 | 7139 ft | 245 kts | 286° |
| 2026-05-05 09:51 | 63.73987 | -22.13033 | 6802 ft | 250 kts | 287° |
| 2026-05-05 09:51 | 63.74414 | -22.16866 | 6481 ft | 253 kts | 286° |
| 2026-05-05 09:52 | 63.74839 | -22.20688 | 6158 ft | 254 kts | 286° |
| 2026-05-05 09:52 | 63.75128 | -22.23284 | 5955 ft | 250 kts | 286° |
| 2026-05-05 09:52 | 63.75677 | -22.28256 | 5578 ft | 241 kts | 287° |
| 2026-05-05 09:52 | 63.76080 | -22.31917 | 5286 ft | 238 kts | 287° |
| 2026-05-05 09:53 | 63.76477 | -22.35529 | 4999 ft | 236 kts | 287° |
| 2026-05-05 09:53 | 63.76745 | -22.37947 | 4818 ft | 234 kts | 288° |
| 2026-05-05 09:53 | 63.77255 | -22.41428 | 4548 ft | 233 kts | 294° |
| 2026-05-05 09:53 | 63.77836 | -22.44856 | 4258 ft | 234 kts | 294° |
| 2026-05-05 09:54 | 63.78402 | -22.48277 | 4000 ft | 231 kts | 293° |
| 2026-05-05 09:54 | 63.78950 | -22.51640 | 3714 ft | 225 kts | 292° |
| 2026-05-05 09:54 | 63.79482 | -22.54910 | 3439 ft | 218 kts | 293° |
| 2026-05-05 09:54 | 63.80027 | -22.58049 | 3170 ft | 208 kts | 303° |
| 2026-05-05 09:55 | 63.81016 | -22.60140 | 2940 ft | 193 kts | 343° |
| 2026-05-05 09:55 | 63.82323 | -22.60492 | 2771 ft | 190 kts | 2° |
| 2026-05-05 09:55 | 63.83670 | -22.60524 | 2539 ft | 195 kts | 2° |
| 2026-05-05 09:55 | 63.85019 | -22.60547 | 2308 ft | 189 kts | 4° |
| 2026-05-05 09:56 | 63.86278 | -22.60549 | 2078 ft | 174 kts | 4° |
| 2026-05-05 09:56 | 63.87430 | -22.60546 | 1910 ft | 164 kts | 4° |
| 2026-05-05 09:56 | 63.88558 | -22.60543 | 1836 ft | 162 kts | 5° |
| 2026-05-05 09:56 | 63.89683 | -22.60541 | 1609 ft | 157 kts | 4° |
| 2026-05-05 09:57 | 63.90740 | -22.60542 | 1386 ft | 146 kts | 4° |
| 2026-05-05 09:57 | 63.91711 | -22.60545 | 1168 ft | 132 kts | 5° |
| 2026-05-05 09:57 | 63.92618 | -22.60538 | 984 ft | 132 kts | 5° |
| 2026-05-05 09:57 | 63.93559 | -22.60583 | 850 ft | 137 kts | 3° |
| 2026-05-05 09:58 | 63.94498 | -22.60601 | 602 ft | 131 kts | 5° |
| 2026-05-05 09:58 | 63.95403 | -22.60566 | 375 ft | 131 kts | 5° |
| 2026-05-05 09:58 | 63.96338 | -22.60558 | 211 ft | 136 kts | 4° |
| 2026-05-05 09:58 | 63.97240 | -22.60546 | 172 ft | 116 kts | 1° |
| 2026-05-05 09:59 | 63.97894 | -22.60543 | 175 ft | 72 kts | 0° |
| 2026-05-05 09:59 | 63.98282 | -22.60541 | 178 ft | 53 kts | 0° |
| 2026-05-05 09:59 | 63.98634 | -22.60549 | 181 ft | 46 kts | 360° |
| 2026-05-05 09:59 | 63.98790 | -22.60600 | 181 ft | 12 kts | 327° |
| 2026-05-05 10:00 | 63.98897 | -22.60819 | 177 ft | 27 kts | 314° |
| 2026-05-05 10:00 | 63.99040 | -22.60943 | 175 ft | 21 kts | 1° |
| 2026-05-05 10:00 | 63.99158 | -22.61004 | 169 ft | 17 kts | 305° |
| 2026-05-05 10:00 | 63.99174 | -22.61298 | 161 ft | 21 kts | 268° |
| 2026-05-05 10:01 | 63.99173 | -22.61684 | 153 ft | 29 kts | 270° |
| 2026-05-05 10:01 | 63.99173 | -22.62075 | 148 ft | 22 kts | 269° |
| 2026-05-05 10:01 | 63.99172 | -22.62430 | 148 ft | 22 kts | 270° |
| 2026-05-05 10:01 | 63.99190 | -22.62661 | 148 ft | 12 kts | 327° |
| 2026-05-05 10:02 | 63.99277 | -22.62733 | 148 ft | 15 kts | 346° |
| 2026-05-05 10:02 | 63.99361 | -22.62737 | 148 ft | 7 kts | 12° |
| 2026-05-05 10:02 | 63.99403 | -22.62731 | 148 ft | 6 kts | 333° |
| 2026-05-05 10:02 | 63.99408 | -22.62793 | 148 ft | 4 kts | 269° |
| 2026-05-05 10:03 | 63.99408 | -22.62865 | 148 ft | 5 kts | 270° |
| 2026-05-05 10:03 | 63.99408 | -22.62896 | 148 ft | 1 kts | 270° |
| 2026-05-05 10:03 | 63.99408 | -22.62897 | 148 ft | 0 kts | 270° |